sensor_id;sensor_type;location;lat;lon;timestamp;pressure;altitude;pressure_sealevel;temperature;humidity
78144;BME280;67394;52.522;13.622;2023-04-19T00:01:27;102166.13;;;5.37;72.86
78144;BME280;67394;52.522;13.622;2023-04-19T00:03:54;102166.91;;;5.36;73.22
78144;BME280;67394;52.522;13.622;2023-04-19T00:06:20;102168.50;;;5.34;71.86
78144;BME280;67394;52.522;13.622;2023-04-19T00:08:46;102170.19;;;5.33;72.17
78144;BME280;67394;52.522;13.622;2023-04-19T00:11:13;102164.22;;;5.33;71.30
78144;BME280;67394;52.522;13.622;2023-04-19T00:13:39;102170.00;;;5.29;72.00
78144;BME280;67394;52.522;13.622;2023-04-19T00:16:06;102164.75;;;5.26;71.47
78144;BME280;67394;52.522;13.622;2023-04-19T00:18:32;102158.72;;;5.24;71.78
78144;BME280;67394;52.522;13.622;2023-04-19T00:20:58;102165.78;;;5.29;70.92
78144;BME280;67394;52.522;13.622;2023-04-19T00:23:25;102153.78;;;5.27;70.89
78144;BME280;67394;52.522;13.622;2023-04-19T00:25:54;102151.91;;;5.23;71.20
78144;BME280;67394;52.522;13.622;2023-04-19T00:28:20;102154.44;;;5.23;70.18
78144;BME280;67394;52.522;13.622;2023-04-19T00:30:46;102157.94;;;5.25;69.96
78144;BME280;67394;52.522;13.622;2023-04-19T00:33:13;102157.94;;;5.25;69.88
78144;BME280;67394;52.522;13.622;2023-04-19T00:35:39;102150.94;;;5.21;69.92
78144;BME280;67394;52.522;13.622;2023-04-19T00:38:06;102153.31;;;5.16;69.58
78144;BME280;67394;52.522;13.622;2023-04-19T00:40:36;102149.88;;;5.15;68.78
78144;BME280;67394;52.522;13.622;2023-04-19T00:43:03;102152.22;;;5.11;69.00
78144;BME280;67394;52.522;13.622;2023-04-19T00:45:31;102157.97;;;5.07;69.54
78144;BME280;67394;52.522;13.622;2023-04-19T00:48:00;102155.13;;;5.01;69.06
78144;BME280;67394;52.522;13.622;2023-04-19T00:50:27;102154.00;;;4.94;69.71
78144;BME280;67394;52.522;13.622;2023-04-19T00:52:54;102151.44;;;4.94;70.39
78144;BME280;67394;52.522;13.622;2023-04-19T00:55:22;102152.00;;;4.89;69.78
78144;BME280;67394;52.522;13.622;2023-04-19T00:57:49;102153.56;;;4.85;69.41
78144;BME280;67394;52.522;13.622;2023-04-19T01:00:15;102146.75;;;4.84;69.74
78144;BME280;67394;52.522;13.622;2023-04-19T01:02:44;102153.94;;;4.75;69.51
78144;BME280;67394;52.522;13.622;2023-04-19T01:05:11;102156.94;;;4.68;70.44
78144;BME280;67394;52.522;13.622;2023-04-19T01:07:37;102156.84;;;4.65;70.54
78144;BME280;67394;52.522;13.622;2023-04-19T01:10:04;102156.69;;;4.62;70.17
78144;BME280;67394;52.522;13.622;2023-04-19T01:12:30;102151.78;;;4.49;71.10
78144;BME280;67394;52.522;13.622;2023-04-19T01:14:57;102152.91;;;4.54;70.67
78144;BME280;67394;52.522;13.622;2023-04-19T01:17:25;102144.84;;;4.45;70.85
78144;BME280;67394;52.522;13.622;2023-04-19T01:20:03;102147.00;;;4.37;70.57
78144;BME280;67394;52.522;13.622;2023-04-19T01:22:30;102149.53;;;4.37;71.29
78144;BME280;67394;52.522;13.622;2023-04-19T01:24:56;102155.81;;;4.27;71.34
78144;BME280;67394;52.522;13.622;2023-04-19T01:27:22;102144.44;;;4.19;72.01
78144;BME280;67394;52.522;13.622;2023-04-19T01:29:49;102144.28;;;4.16;70.75
78144;BME280;67394;52.522;13.622;2023-04-19T01:32:15;102146.44;;;4.09;71.65
78144;BME280;67394;52.522;13.622;2023-04-19T01:34:42;102140.50;;;4.08;71.13
78144;BME280;67394;52.522;13.622;2023-04-19T01:37:08;102142.75;;;4.02;71.87
78144;BME280;67394;52.522;13.622;2023-04-19T01:39:34;102137.50;;;3.99;71.42
78144;BME280;67394;52.522;13.622;2023-04-19T01:42:01;102137.59;;;4.00;71.13
78144;BME280;67394;52.522;13.622;2023-04-19T01:44:27;102145.81;;;3.96;71.64
78144;BME280;67394;52.522;13.622;2023-04-19T01:46:53;102138.63;;;3.88;71.54
78144;BME280;67394;52.522;13.622;2023-04-19T01:49:20;102139.25;;;3.84;72.52
78144;BME280;67394;52.522;13.622;2023-04-19T01:51:46;102129.91;;;3.83;73.06
78144;BME280;67394;52.522;13.622;2023-04-19T01:54:13;102132.44;;;3.83;72.23
78144;BME280;67394;52.522;13.622;2023-04-19T01:56:39;102124.69;;;3.80;72.30
78144;BME280;67394;52.522;13.622;2023-04-19T01:59:06;102124.53;;;3.77;72.39
78144;BME280;67394;52.522;13.622;2023-04-19T02:01:32;102125.66;;;3.65;73.43
78144;BME280;67394;52.522;13.622;2023-04-19T02:03:59;102122.00;;;3.60;73.01
78144;BME280;67394;52.522;13.622;2023-04-19T02:06:28;102117.41;;;3.53;74.09
78144;BME280;67394;52.522;13.622;2023-04-19T02:08:55;102126.75;;;3.54;73.03
78144;BME280;67394;52.522;13.622;2023-04-19T02:11:21;102118.38;;;3.55;73.25
78144;BME280;67394;52.522;13.622;2023-04-19T02:13:47;102112.03;;;3.47;73.49
78144;BME280;67394;52.522;13.622;2023-04-19T02:16:13;102122.09;;;3.46;73.34
78144;BME280;67394;52.522;13.622;2023-04-19T02:18:40;102117.13;;;3.47;73.91
78144;BME280;67394;52.522;13.622;2023-04-19T02:21:07;102113.63;;;3.45;73.87
78144;BME280;67394;52.522;13.622;2023-04-19T02:23:34;102106.72;;;3.43;73.63
78144;BME280;67394;52.522;13.622;2023-04-19T02:26:01;102113.28;;;3.39;73.87
78144;BME280;67394;52.522;13.622;2023-04-19T02:28:28;102106.63;;;3.41;73.55
78144;BME280;67394;52.522;13.622;2023-04-19T02:30:55;102099.03;;;3.41;73.92
78144;BME280;67394;52.522;13.622;2023-04-19T02:33:21;102104.03;;;3.40;73.06
78144;BME280;67394;52.522;13.622;2023-04-19T02:35:48;102107.22;;;3.36;73.87
78144;BME280;67394;52.522;13.622;2023-04-19T02:38:14;102102.06;;;3.34;73.49
78144;BME280;67394;52.522;13.622;2023-04-19T02:40:40;102102.38;;;3.24;73.78
78144;BME280;67394;52.522;13.622;2023-04-19T02:43:07;102095.38;;;3.20;74.43
78144;BME280;67394;52.522;13.622;2023-04-19T02:45:33;102095.06;;;3.14;74.96
78144;BME280;67394;52.522;13.622;2023-04-19T02:47:59;102095.38;;;3.20;74.25
78144;BME280;67394;52.522;13.622;2023-04-19T02:50:26;102086.69;;;3.15;74.71
78144;BME280;67394;52.522;13.622;2023-04-19T02:52:52;102081.53;;;3.13;74.69
78144;BME280;67394;52.522;13.622;2023-04-19T02:55:19;102081.22;;;3.07;75.90
78144;BME280;67394;52.522;13.622;2023-04-19T02:57:45;102076.69;;;3.02;75.59
78144;BME280;67394;52.522;13.622;2023-04-19T03:00:12;102083.97;;;2.96;76.39
78144;BME280;67394;52.522;13.622;2023-04-19T03:02:38;102083.91;;;2.94;76.70
78144;BME280;67394;52.522;13.622;2023-04-19T03:05:05;102085.16;;;2.86;76.47
78144;BME280;67394;52.522;13.622;2023-04-19T03:07:31;102070.66;;;2.83;77.39
78144;BME280;67394;52.522;13.622;2023-04-19T03:09:58;102079.75;;;2.80;77.28
78144;BME280;67394;52.522;13.622;2023-04-19T03:12:24;102075.28;;;2.76;77.59
78144;BME280;67394;52.522;13.622;2023-04-19T03:14:50;102071.19;;;2.78;77.71
78144;BME280;67394;52.522;13.622;2023-04-19T03:17:17;102067.78;;;2.77;77.51
78144;BME280;67394;52.522;13.622;2023-04-19T03:19:43;102073.97;;;2.82;77.90
78144;BME280;67394;52.522;13.622;2023-04-19T03:22:09;102064.94;;;2.71;78.34
78144;BME280;67394;52.522;13.622;2023-04-19T03:24:35;102063.09;;;2.69;77.89
78144;BME280;67394;52.522;13.622;2023-04-19T03:27:03;102059.47;;;2.64;78.78
78144;BME280;67394;52.522;13.622;2023-04-19T03:29:29;102062.00;;;2.64;79.12
78144;BME280;67394;52.522;13.622;2023-04-19T03:31:56;102057.72;;;2.63;79.25
78144;BME280;67394;52.522;13.622;2023-04-19T03:34:22;102046.25;;;2.69;79.46
78144;BME280;67394;52.522;13.622;2023-04-19T03:36:49;102052.09;;;2.68;79.19
78144;BME280;67394;52.522;13.622;2023-04-19T03:39:15;102047.50;;;2.61;79.78
78144;BME280;67394;52.522;13.622;2023-04-19T03:41:41;102047.34;;;2.58;79.81
78144;BME280;67394;52.522;13.622;2023-04-19T03:44:07;102049.88;;;2.58;80.21
78144;BME280;67394;52.522;13.622;2023-04-19T03:46:34;102041.31;;;2.56;80.49
78144;BME280;67394;52.522;13.622;2023-04-19T03:49:00;102044.97;;;2.61;80.14
78144;BME280;67394;52.522;13.622;2023-04-19T03:51:27;102038.19;;;2.60;80.71
78144;BME280;67394;52.522;13.622;2023-04-19T03:53:53;102034.06;;;2.62;80.51
78144;BME280;67394;52.522;13.622;2023-04-19T03:56:19;102036.31;;;2.72;80.52
78144;BME280;67394;52.522;13.622;2023-04-19T03:58:45;102029.69;;;2.74;80.48
78144;BME280;67394;52.522;13.622;2023-04-19T04:01:21;102033.53;;;2.68;80.69
78144;BME280;67394;52.522;13.622;2023-04-19T04:03:47;102024.56;;;2.58;81.13
78144;BME280;67394;52.522;13.622;2023-04-19T04:06:14;102033.28;;;2.63;81.55
78144;BME280;67394;52.522;13.622;2023-04-19T04:08:41;102024.38;;;2.55;81.78
78144;BME280;67394;52.522;13.622;2023-04-19T04:11:07;102028.84;;;2.59;81.89
78144;BME280;67394;52.522;13.622;2023-04-19T04:13:33;102026.88;;;2.53;82.33
78144;BME280;67394;52.522;13.622;2023-04-19T04:16:00;102019.97;;;2.51;82.65
78144;BME280;67394;52.522;13.622;2023-04-19T04:18:26;102025.22;;;2.54;82.69
78144;BME280;67394;52.522;13.622;2023-04-19T04:20:53;102023.19;;;2.48;82.96
78144;BME280;67394;52.522;13.622;2023-04-19T04:23:19;102025.13;;;2.52;83.39
78144;BME280;67394;52.522;13.622;2023-04-19T04:25:45;102024.75;;;2.61;83.44
78144;BME280;67394;52.522;13.622;2023-04-19T04:28:14;102026.22;;;2.57;83.17
78144;BME280;67394;52.522;13.622;2023-04-19T04:30:40;102020.16;;;2.54;84.22
78144;BME280;67394;52.522;13.622;2023-04-19T04:33:06;102017.53;;;2.69;83.81
78144;BME280;67394;52.522;13.622;2023-04-19T04:35:33;102015.72;;;2.66;83.98
78144;BME280;67394;52.522;13.622;2023-04-19T04:37:59;102014.69;;;2.63;84.31
78144;BME280;67394;52.522;13.622;2023-04-19T04:40:29;102012.16;;;2.63;84.44
78144;BME280;67394;52.522;13.622;2023-04-19T04:42:55;102014.63;;;2.61;84.98
78144;BME280;67394;52.522;13.622;2023-04-19T04:45:22;102012.31;;;2.66;85.09
78144;BME280;67394;52.522;13.622;2023-04-19T04:47:48;102000.56;;;2.82;84.69
78144;BME280;67394;52.522;13.622;2023-04-19T04:50:15;102006.72;;;2.71;85.17
78144;BME280;67394;52.522;13.622;2023-04-19T04:52:41;102005.84;;;2.71;85.58
78144;BME280;67394;52.522;13.622;2023-04-19T04:55:07;101995.16;;;2.76;85.38
78144;BME280;67394;52.522;13.622;2023-04-19T04:57:34;101991.63;;;2.89;85.17
78144;BME280;67394;52.522;13.622;2023-04-19T05:00:00;101988.69;;;2.98;84.76
78144;BME280;67394;52.522;13.622;2023-04-19T05:02:26;101986.50;;;3.04;84.91
78144;BME280;67394;52.522;13.622;2023-04-19T05:04:53;101983.47;;;3.11;84.64
78144;BME280;67394;52.522;13.622;2023-04-19T05:07:19;101982.34;;;3.22;84.05
78144;BME280;67394;52.522;13.622;2023-04-19T05:09:46;101975.53;;;3.21;84.35
78144;BME280;67394;52.522;13.622;2023-04-19T05:12:12;101982.50;;;3.25;84.49
78144;BME280;67394;52.522;13.622;2023-04-19T05:14:38;101985.22;;;3.28;84.13
78144;BME280;67394;52.522;13.622;2023-04-19T05:17:05;101972.13;;;3.37;83.85
78144;BME280;67394;52.522;13.622;2023-04-19T05:19:32;101974.88;;;3.41;83.59
78144;BME280;67394;52.522;13.622;2023-04-19T05:21:58;101971.78;;;3.47;83.49
78144;BME280;67394;52.522;13.622;2023-04-19T05:24:24;101972.00;;;3.51;83.79
78144;BME280;67394;52.522;13.622;2023-04-19T05:26:51;101969.91;;;3.60;83.18
78144;BME280;67394;52.522;13.622;2023-04-19T05:29:17;101971.88;;;3.66;82.82
78144;BME280;67394;52.522;13.622;2023-04-19T05:31:44;101964.63;;;3.74;82.65
78144;BME280;67394;52.522;13.622;2023-04-19T05:34:10;101963.94;;;3.76;83.06
78144;BME280;67394;52.522;13.622;2023-04-19T05:36:37;101967.94;;;3.89;81.78
78144;BME280;67394;52.522;13.622;2023-04-19T05:39:03;101964.72;;;3.93;81.88
78144;BME280;67394;52.522;13.622;2023-04-19T05:41:29;101961.63;;;3.98;81.51
78144;BME280;67394;52.522;13.622;2023-04-19T05:43:56;101962.13;;;4.09;81.25
78144;BME280;67394;52.522;13.622;2023-04-19T05:46:22;101964.22;;;4.18;81.29
78144;BME280;67394;52.522;13.622;2023-04-19T05:48:48;101967.09;;;4.25;80.23
78144;BME280;67394;52.522;13.622;2023-04-19T05:51:15;101964.94;;;4.33;79.93
78144;BME280;67394;52.522;13.622;2023-04-19T05:53:41;101962.88;;;4.44;80.08
78144;BME280;67394;52.522;13.622;2023-04-19T05:56:07;101964.03;;;4.50;79.60
78144;BME280;67394;52.522;13.622;2023-04-19T05:58:33;101957.28;;;4.51;79.06
78144;BME280;67394;52.522;13.622;2023-04-19T06:01:01;101956.75;;;4.58;78.80
78144;BME280;67394;52.522;13.622;2023-04-19T06:03:27;101959.56;;;4.64;79.03
78144;BME280;67394;52.522;13.622;2023-04-19T06:05:58;101954.28;;;4.78;78.88
78144;BME280;67394;52.522;13.622;2023-04-19T06:08:24;101962.25;;;4.86;79.05
78144;BME280;67394;52.522;13.622;2023-04-19T06:10:51;101951.47;;;4.92;78.15
78144;BME280;67394;52.522;13.622;2023-04-19T06:13:22;101953.44;;;4.97;77.19
78144;BME280;67394;52.522;13.622;2023-04-19T06:15:48;101944.31;;;5.02;77.69
78144;BME280;67394;52.522;13.622;2023-04-19T06:18:14;101941.19;;;5.08;77.58
78144;BME280;67394;52.522;13.622;2023-04-19T06:20:45;101947.53;;;5.18;76.07
78144;BME280;67394;52.522;13.622;2023-04-19T06:23:13;101941.16;;;5.27;76.39
78144;BME280;67394;52.522;13.622;2023-04-19T06:25:39;101949.00;;;5.33;75.88
78144;BME280;67394;52.522;13.622;2023-04-19T06:28:05;101950.69;;;5.33;74.90
78144;BME280;67394;52.522;13.622;2023-04-19T06:30:32;101943.34;;;5.39;75.41
78144;BME280;67394;52.522;13.622;2023-04-19T06:32:58;101936.31;;;5.54;75.44
78144;BME280;67394;52.522;13.622;2023-04-19T06:35:24;101938.56;;;5.67;74.45
78144;BME280;67394;52.522;13.622;2023-04-19T06:37:51;101935.06;;;5.65;73.76
78144;BME280;67394;52.522;13.622;2023-04-19T06:40:17;101932.28;;;5.80;74.08
78144;BME280;67394;52.522;13.622;2023-04-19T06:42:44;101937.91;;;5.94;73.10
78144;BME280;67394;52.522;13.622;2023-04-19T06:45:10;101936.63;;;6.03;72.68
78144;BME280;67394;52.522;13.622;2023-04-19T06:47:36;101927.66;;;6.13;72.68
78144;BME280;67394;52.522;13.622;2023-04-19T06:50:03;101927.03;;;6.18;71.53
78144;BME280;67394;52.522;13.622;2023-04-19T06:52:30;101923.38;;;6.34;71.24
78144;BME280;67394;52.522;13.622;2023-04-19T06:54:56;101918.63;;;6.43;70.74
78144;BME280;67394;52.522;13.622;2023-04-19T06:57:22;101911.06;;;6.46;69.17
78144;BME280;67394;52.522;13.622;2023-04-19T06:59:49;101904.28;;;6.45;68.95
78144;BME280;67394;52.522;13.622;2023-04-19T07:02:15;101905.28;;;6.50;68.36
78144;BME280;67394;52.522;13.622;2023-04-19T07:04:41;101897.34;;;6.65;68.93
78144;BME280;67394;52.522;13.622;2023-04-19T07:07:08;101897.81;;;6.79;69.53
78144;BME280;67394;52.522;13.622;2023-04-19T07:09:36;101892.22;;;6.89;67.32
78144;BME280;67394;52.522;13.622;2023-04-19T07:12:03;101893.31;;;6.95;67.56
78144;BME280;67394;52.522;13.622;2023-04-19T07:14:29;101889.50;;;7.08;66.04
78144;BME280;67394;52.522;13.622;2023-04-19T07:16:55;101895.50;;;7.10;64.92
78144;BME280;67394;52.522;13.622;2023-04-19T07:19:22;101896.53;;;7.15;65.17
78144;BME280;67394;52.522;13.622;2023-04-19T07:21:50;101885.94;;;7.28;63.57
78144;BME280;67394;52.522;13.622;2023-04-19T07:24:17;101888.81;;;7.39;64.16
78144;BME280;67394;52.522;13.622;2023-04-19T07:26:43;101878.00;;;7.46;62.09
78144;BME280;67394;52.522;13.622;2023-04-19T07:29:10;101878.44;;;7.60;62.17
78144;BME280;67394;52.522;13.622;2023-04-19T07:31:38;101879.69;;;7.72;62.03
78144;BME280;67394;52.522;13.622;2023-04-19T07:34:04;101873.19;;;7.82;62.11
78144;BME280;67394;52.522;13.622;2023-04-19T07:36:31;101864.16;;;7.93;62.35
78144;BME280;67394;52.522;13.622;2023-04-19T07:38:57;101866.78;;;7.96;61.19
78144;BME280;67394;52.522;13.622;2023-04-19T07:41:23;101864.94;;;7.91;60.33
78144;BME280;67394;52.522;13.622;2023-04-19T07:43:50;101867.78;;;8.01;60.00
78144;BME280;67394;52.522;13.622;2023-04-19T07:46:16;101865.16;;;8.28;59.70
78144;BME280;67394;52.522;13.622;2023-04-19T07:48:43;101854.41;;;8.38;59.54
78144;BME280;67394;52.522;13.622;2023-04-19T07:51:10;101856.09;;;8.36;57.91
78144;BME280;67394;52.522;13.622;2023-04-19T07:53:38;101855.28;;;8.39;58.54
78144;BME280;67394;52.522;13.622;2023-04-19T07:56:09;101848.03;;;8.54;60.03
78144;BME280;67394;52.522;13.622;2023-04-19T07:58:38;101847.13;;;8.52;57.41
78144;BME280;67394;52.522;13.622;2023-04-19T08:01:04;101846.88;;;8.74;59.04
78144;BME280;67394;52.522;13.622;2023-04-19T08:03:32;101841.09;;;8.81;56.36
78144;BME280;67394;52.522;13.622;2023-04-19T08:06:04;101848.38;;;8.99;57.56
78144;BME280;67394;52.522;13.622;2023-04-19T08:08:30;101849.16;;;8.97;57.52
78144;BME280;67394;52.522;13.622;2023-04-19T08:10:59;101850.22;;;9.05;57.26
78144;BME280;67394;52.522;13.622;2023-04-19T08:13:28;101836.88;;;9.16;55.85
78144;BME280;67394;52.522;13.622;2023-04-19T08:15:54;101837.09;;;9.26;56.14
78144;BME280;67394;52.522;13.622;2023-04-19T08:18:23;101846.13;;;9.47;57.39
78144;BME280;67394;52.522;13.622;2023-04-19T08:20:50;101848.81;;;9.53;55.01
78144;BME280;67394;52.522;13.622;2023-04-19T08:23:16;101843.75;;;9.55;55.26
78144;BME280;67394;52.522;13.622;2023-04-19T08:25:51;101834.44;;;9.59;54.64
78144;BME280;67394;52.522;13.622;2023-04-19T08:28:17;101832.72;;;9.58;55.54
78144;BME280;67394;52.522;13.622;2023-04-19T08:30:44;101828.38;;;9.55;55.31
78144;BME280;67394;52.522;13.622;2023-04-19T08:33:10;101821.69;;;9.60;55.86
78144;BME280;67394;52.522;13.622;2023-04-19T08:35:37;101834.31;;;9.52;54.95
78144;BME280;67394;52.522;13.622;2023-04-19T08:38:04;101826.03;;;9.64;53.97
78144;BME280;67394;52.522;13.622;2023-04-19T08:40:30;101835.44;;;9.64;55.46
78144;BME280;67394;52.522;13.622;2023-04-19T08:42:56;101824.13;;;9.55;53.53
78144;BME280;67394;52.522;13.622;2023-04-19T08:45:26;101818.34;;;9.64;54.63
78144;BME280;67394;52.522;13.622;2023-04-19T08:47:56;101814.91;;;9.62;54.74
78144;BME280;67394;52.522;13.622;2023-04-19T08:50:27;101813.09;;;9.97;54.37
78144;BME280;67394;52.522;13.622;2023-04-19T08:53:04;101810.72;;;10.47;55.40
78144;BME280;67394;52.522;13.622;2023-04-19T08:55:49;101797.69;;;10.36;52.52
78144;BME280;67394;52.522;13.622;2023-04-19T08:58:36;101801.75;;;10.25;52.56
78144;BME280;67394;52.522;13.622;2023-04-19T09:01:23;101799.84;;;10.16;52.79
78144;BME280;67394;52.522;13.622;2023-04-19T09:04:04;101798.75;;;10.05;51.93
78144;BME280;67394;52.522;13.622;2023-04-19T09:06:51;101795.19;;;9.99;52.44
78144;BME280;67394;52.522;13.622;2023-04-19T09:09:20;101789.31;;;10.03;53.77
78144;BME280;67394;52.522;13.622;2023-04-19T09:11:49;101790.97;;;10.01;52.94
78144;BME280;67394;52.522;13.622;2023-04-19T09:14:18;101792.59;;;10.38;51.60
78144;BME280;67394;52.522;13.622;2023-04-19T09:16:44;101786.88;;;10.52;51.01
78144;BME280;67394;52.522;13.622;2023-04-19T09:19:11;101779.69;;;10.83;51.10
78144;BME280;67394;52.522;13.622;2023-04-19T09:21:50;101769.22;;;11.23;51.48
78144;BME280;67394;52.522;13.622;2023-04-19T09:24:16;101762.50;;;11.30;50.04
78144;BME280;67394;52.522;13.622;2023-04-19T09:26:53;101771.38;;;11.55;50.06
78144;BME280;67394;52.522;13.622;2023-04-19T09:29:20;101755.16;;;11.57;50.03
78144;BME280;67394;52.522;13.622;2023-04-19T09:31:58;101755.28;;;11.66;50.26
78144;BME280;67394;52.522;13.622;2023-04-19T09:34:26;101762.88;;;11.57;50.09
78144;BME280;67394;52.522;13.622;2023-04-19T09:36:53;101757.38;;;11.31;50.11
78144;BME280;67394;52.522;13.622;2023-04-19T09:39:37;101766.41;;;11.07;50.30
78144;BME280;67394;52.522;13.622;2023-04-19T09:42:03;101746.09;;;11.20;50.96
78144;BME280;67394;52.522;13.622;2023-04-19T09:44:29;101753.34;;;11.49;50.10
78144;BME280;67394;52.522;13.622;2023-04-19T09:46:59;101749.28;;;11.67;51.05
78144;BME280;67394;52.522;13.622;2023-04-19T09:49:25;101757.28;;;11.87;49.83
78144;BME280;67394;52.522;13.622;2023-04-19T09:52:13;101749.38;;;11.72;50.33
78144;BME280;67394;52.522;13.622;2023-04-19T09:54:40;101751.72;;;11.54;49.38
78144;BME280;67394;52.522;13.622;2023-04-19T09:57:07;101761.25;;;11.64;48.98
78144;BME280;67394;52.522;13.622;2023-04-19T09:59:33;101767.81;;;11.42;49.80
78144;BME280;67394;52.522;13.622;2023-04-19T10:02:00;101763.69;;;11.55;49.49
78144;BME280;67394;52.522;13.622;2023-04-19T10:04:30;101749.59;;;11.86;49.12
78144;BME280;67394;52.522;13.622;2023-04-19T10:07:17;101747.28;;;12.12;48.99
78144;BME280;67394;52.522;13.622;2023-04-19T10:09:57;101746.47;;;12.14;49.06
78144;BME280;67394;52.522;13.622;2023-04-19T10:12:44;101745.81;;;12.35;47.66
78144;BME280;67394;52.522;13.622;2023-04-19T10:15:35;101739.19;;;12.61;49.58
78144;BME280;67394;52.522;13.622;2023-04-19T10:18:16;101739.31;;;12.70;47.58
78144;BME280;67394;52.522;13.622;2023-04-19T10:20:58;101738.25;;;12.49;48.23
78144;BME280;67394;52.522;13.622;2023-04-19T10:23:27;101734.75;;;12.43;48.03
78144;BME280;67394;52.522;13.622;2023-04-19T10:25:55;101732.44;;;12.72;48.95
78144;BME280;67394;52.522;13.622;2023-04-19T10:28:22;101735.59;;;12.39;47.25
78144;BME280;67394;52.522;13.622;2023-04-19T10:31:00;101732.22;;;12.45;47.54
78144;BME280;67394;52.522;13.622;2023-04-19T10:33:37;101736.53;;;12.51;47.74
78144;BME280;67394;52.522;13.622;2023-04-19T10:36:06;101741.75;;;12.57;47.53
78144;BME280;67394;52.522;13.622;2023-04-19T10:41:11;101732.72;;;12.10;48.21
78144;BME280;67394;52.522;13.622;2023-04-19T10:44:08;101720.72;;;12.11;47.38
78144;BME280;67394;52.522;13.622;2023-04-19T10:46:36;101716.66;;;12.33;47.05
78144;BME280;67394;52.522;13.622;2023-04-19T10:49:05;101722.78;;;12.45;48.55
78144;BME280;67394;52.522;13.622;2023-04-19T10:51:33;101724.16;;;12.12;47.78
78144;BME280;67394;52.522;13.622;2023-04-19T10:54:01;101713.91;;;12.15;48.39
78144;BME280;67394;52.522;13.622;2023-04-19T11:01:42;101713.03;;;12.13;48.54
78144;BME280;67394;52.522;13.622;2023-04-19T11:06:38;101707.09;;;12.20;47.60
78144;BME280;67394;52.522;13.622;2023-04-19T11:11:53;101699.91;;;12.77;47.55
78144;BME280;67394;52.522;13.622;2023-04-19T11:14:20;101698.53;;;12.19;47.94
78144;BME280;67394;52.522;13.622;2023-04-19T11:16:46;101702.16;;;12.38;48.44
78144;BME280;67394;52.522;13.622;2023-04-19T11:19:16;101689.41;;;12.52;47.81
78144;BME280;67394;52.522;13.622;2023-04-19T11:21:47;101686.53;;;12.18;47.15
78144;BME280;67394;52.522;13.622;2023-04-19T11:24:14;101688.03;;;11.98;47.20
78144;BME280;67394;52.522;13.622;2023-04-19T11:26:44;101675.19;;;11.96;47.63
78144;BME280;67394;52.522;13.622;2023-04-19T11:29:11;101668.22;;;11.85;48.57
78144;BME280;67394;52.522;13.622;2023-04-19T11:31:37;101682.53;;;11.67;48.97
78144;BME280;67394;52.522;13.622;2023-04-19T11:34:04;101679.13;;;11.68;49.44
78144;BME280;67394;52.522;13.622;2023-04-19T11:36:30;101679.19;;;11.74;48.79
78144;BME280;67394;52.522;13.622;2023-04-19T11:38:57;101677.28;;;11.58;48.76
78144;BME280;67394;52.522;13.622;2023-04-19T11:41:23;101683.22;;;11.53;49.24
78144;BME280;67394;52.522;13.622;2023-04-19T11:43:50;101670.84;;;11.24;49.62
78144;BME280;67394;52.522;13.622;2023-04-19T11:46:17;101663.13;;;11.20;50.16
78144;BME280;67394;52.522;13.622;2023-04-19T11:48:53;101664.78;;;11.18;49.31
78144;BME280;67394;52.522;13.622;2023-04-19T11:51:19;101670.19;;;11.37;47.77
78144;BME280;67394;52.522;13.622;2023-04-19T11:53:46;101665.09;;;11.41;47.19
78144;BME280;67394;52.522;13.622;2023-04-19T11:56:12;101659.34;;;11.60;49.01
78144;BME280;67394;52.522;13.622;2023-04-19T11:58:43;101658.59;;;11.71;48.78
78144;BME280;67394;52.522;13.622;2023-04-19T12:01:15;101662.97;;;11.77;48.16
78144;BME280;67394;52.522;13.622;2023-04-19T12:03:49;101661.91;;;11.61;48.21
78144;BME280;67394;52.522;13.622;2023-04-19T12:06:21;101665.66;;;11.85;48.61
78144;BME280;67394;52.522;13.622;2023-04-19T12:08:49;101662.06;;;11.73;47.50
78144;BME280;67394;52.522;13.622;2023-04-19T12:11:18;101659.88;;;11.36;47.26
78144;BME280;67394;52.522;13.622;2023-04-19T12:13:45;101665.72;;;11.23;48.28
78144;BME280;67394;52.522;13.622;2023-04-19T12:16:12;101661.38;;;11.17;49.63
78144;BME280;67394;52.522;13.622;2023-04-19T12:18:46;101663.41;;;11.44;49.46
78144;BME280;67394;52.522;13.622;2023-04-19T12:21:23;101657.56;;;11.54;48.91
78144;BME280;67394;52.522;13.622;2023-04-19T12:23:49;101650.78;;;11.61;47.95
78144;BME280;67394;52.522;13.622;2023-04-19T12:26:15;101641.66;;;11.84;48.54
78144;BME280;67394;52.522;13.622;2023-04-19T12:28:42;101639.75;;;11.71;47.99
78144;BME280;67394;52.522;13.622;2023-04-19T12:31:08;101635.63;;;11.81;47.23
78144;BME280;67394;52.522;13.622;2023-04-19T12:33:37;101629.50;;;11.71;47.72
78144;BME280;67394;52.522;13.622;2023-04-19T12:36:05;101630.38;;;11.73;47.95
78144;BME280;67394;52.522;13.622;2023-04-19T12:38:31;101620.34;;;11.97;47.82
78144;BME280;67394;52.522;13.622;2023-04-19T12:40:58;101608.97;;;11.72;46.98
78144;BME280;67394;52.522;13.622;2023-04-19T12:43:24;101609.03;;;11.76;46.28
78144;BME280;67394;52.522;13.622;2023-04-19T12:45:50;101604.00;;;11.85;47.01
78144;BME280;67394;52.522;13.622;2023-04-19T12:48:17;101600.69;;;11.96;45.32
78144;BME280;67394;52.522;13.622;2023-04-19T12:50:43;101595.47;;;11.92;45.63
78144;BME280;67394;52.522;13.622;2023-04-19T12:53:09;101594.38;;;11.70;44.58
78144;BME280;67394;52.522;13.622;2023-04-19T12:55:36;101598.00;;;11.87;46.04
78144;BME280;67394;52.522;13.622;2023-04-19T12:58:02;101593.78;;;11.94;45.52
78144;BME280;67394;52.522;13.622;2023-04-19T13:00:28;101583.81;;;12.29;44.58
78144;BME280;67394;52.522;13.622;2023-04-19T13:02:55;101575.25;;;12.31;44.94
78144;BME280;67394;52.522;13.622;2023-04-19T13:05:22;101575.25;;;12.33;46.69